Time;durP1;ratioP1;P1;durP2;ratioP2;P2;SDS_P1;SDS_P2;PMS_P1;PMS_P2;Temp;Humidity;BMP_temperature;BMP_pressure;BME280_temperature;BME280_humidity;BME280_pressure;Samples;Min_cycle;Max_cycle;Signal;HPM_P1;HPM_P2
2021/04/25 00:01:42;;;;;;;3.63;1.30;;;9.70;57.30;;;;;;4954650;28;20545;-78
2021/04/25 00:04:09;;;;;;;4.75;1.50;;;9.70;57.30;;;;;;4954046;28;20030;-77
2021/04/25 00:06:36;;;;;;;4.18;1.60;;;9.70;57.30;;;;;;4954986;28;20483;-77
2021/04/25 00:09:03;;;;;;;4.95;1.50;;;9.80;57.30;;;;;;4954044;28;20031;-77
2021/04/25 00:11:28;;;;;;;4.40;1.30;;;9.70;57.60;;;;;;4953283;28;20133;-77
2021/04/25 00:13:54;;;;;;;3.75;1.48;;;9.70;57.60;;;;;;4954349;28;20070;-76
2021/04/25 00:16:22;;;;;;;4.10;1.67;;;9.80;57.50;;;;;;4954526;28;20050;-77
2021/04/25 00:18:48;;;;;;;3.47;1.40;;;9.80;57.60;;;;;;4954236;28;20020;-77
2021/04/25 00:21:13;;;;;;;2.72;1.65;;;9.80;57.80;;;;;;4953698;28;20034;-77
2021/04/25 00:23:39;;;;;;;3.80;1.63;;;9.80;57.90;;;;;;4954387;28;20050;-77
2021/04/25 00:26:05;;;;;;;3.20;1.42;;;9.80;57.90;;;;;;4952360;29;20031;-77
2021/04/25 00:28:31;;;;;;;5.70;1.83;;;9.70;58.20;;;;;;4954360;28;20034;-77
2021/04/25 00:30:56;;;;;;;4.45;1.70;;;9.80;58.20;;;;;;4969157;28;20097;-77
2021/04/25 00:33:22;;;;;;;4.00;1.60;;;9.80;58.10;;;;;;4954139;28;20478;-77
2021/04/25 00:35:47;;;;;;;5.00;1.65;;;9.80;58.10;;;;;;4954171;28;20034;-77
2021/04/25 00:38:13;;;;;;;3.05;1.50;;;9.80;58.00;;;;;;4953265;28;20023;-78
2021/04/25 00:40:39;;;;;;;3.78;1.77;;;9.80;58.00;;;;;;4953899;28;20114;-76
2021/04/25 00:43:05;;;;;;;5.78;1.65;;;9.80;58.20;;;;;;4968049;28;20031;-77
2021/04/25 00:45:31;;;;;;;3.75;1.13;;;9.70;58.30;;;;;;4968627;28;20376;-78
2021/04/25 00:47:56;;;;;;;3.58;1.77;;;9.70;58.30;;;;;;4968273;28;20027;-78
2021/04/25 00:50:24;;;;;;;3.05;1.20;;;9.70;58.30;;;;;;4953989;28;20039;-77
2021/04/25 00:52:54;;;;;;;3.90;1.92;;;9.70;58.60;;;;;;4953985;28;20067;-76
2021/04/25 00:55:22;;;;;;;3.55;1.42;;;9.60;58.80;;;;;;4952838;28;20053;-77
2021/04/25 00:57:48;;;;;;;4.88;1.30;;;9.50;58.90;;;;;;4968434;28;20114;-77
2021/04/25 01:00:15;;;;;;;3.95;1.77;;;9.40;59.00;;;;;;4953070;28;20073;-78
2021/04/25 01:02:41;;;;;;;5.13;1.42;;;9.40;59.10;;;;;;4968610;28;20058;-78
2021/04/25 01:05:11;;;;;;;5.00;1.60;;;9.40;59.20;;;;;;4953530;28;20035;-76
2021/04/25 01:07:37;;;;;;;5.00;1.83;;;9.40;59.40;;;;;;4953788;28;20027;-77
2021/04/25 01:10:05;;;;;;;4.75;1.88;;;9.40;60.20;;;;;;4968690;28;20034;-77
2021/04/25 01:12:31;;;;;;;2.78;1.27;;;9.30;59.60;;;;;;4972681;28;20027;-77
2021/04/25 01:14:56;;;;;;;3.95;2.13;;;9.20;59.60;;;;;;4972111;28;20015;-77
2021/04/25 01:17:22;;;;;;;4.35;1.27;;;9.10;59.70;;;;;;4957311;28;20027;-78
2021/04/25 01:19:48;;;;;;;3.97;1.25;;;9.10;59.80;;;;;;4957576;28;20413;-78
2021/04/25 01:22:13;;;;;;;3.00;1.40;;;9.10;59.80;;;;;;4956543;28;20102;-77
2021/04/25 01:24:39;;;;;;;5.72;1.30;;;9.10;59.90;;;;;;4957062;28;20472;-78
2021/04/25 01:27:06;;;;;;;4.18;1.17;;;9.00;59.80;;;;;;4955138;28;20035;-77
2021/04/25 01:29:31;;;;;;;3.35;1.15;;;9.00;59.80;;;;;;4971992;28;20035;-79
2021/04/25 01:31:57;;;;;;;2.92;1.08;;;9.00;59.80;;;;;;4956802;28;20031;-78
2021/04/25 01:34:23;;;;;;;2.90;1.10;;;9.00;59.70;;;;;;4957330;28;20023;-76
2021/04/25 01:36:49;;;;;;;6.18;1.25;;;9.00;59.70;;;;;;4972084;28;20024;-77
2021/04/25 01:39:15;;;;;;;1.75;0.90;;;9.00;59.70;;;;;;4955573;29;20028;-77
2021/04/25 01:41:40;;;;;;;4.70;1.33;;;8.90;59.60;;;;;;4956088;29;20034;-77
2021/04/25 01:44:07;;;;;;;3.30;1.15;;;8.90;59.60;;;;;;4956604;28;20087;-76
2021/04/25 01:46:33;;;;;;;3.78;1.17;;;8.90;59.60;;;;;;4957040;28;20043;-77
2021/04/25 01:48:59;;;;;;;1.83;1.02;;;8.90;59.50;;;;;;4955378;28;20447;-76
2021/04/25 01:51:24;;;;;;;2.90;1.25;;;8.90;59.60;;;;;;4957066;28;20039;-77
2021/04/25 01:53:50;;;;;;;2.38;1.20;;;8.90;59.60;;;;;;4971847;28;20023;-78
2021/04/25 01:56:16;;;;;;;2.78;1.10;;;8.90;59.60;;;;;;4956380;28;20024;-78
2021/04/25 01:58:41;;;;;;;4.95;0.98;;;8.90;59.40;;;;;;4956860;28;20051;-77
2021/04/25 02:01:07;;;;;;;5.75;1.80;;;8.90;59.40;;;;;;4955805;28;20035;-77
2021/04/25 02:03:33;;;;;;;2.22;1.20;;;8.90;59.30;;;;;;4956861;28;20041;-77
2021/04/25 02:05:59;;;;;;;2.90;1.23;;;8.90;59.30;;;;;;4956747;28;20423;-77
2021/04/25 02:08:24;;;;;;;2.97;1.33;;;8.80;59.20;;;;;;4956519;28;20027;-77
2021/04/25 02:10:50;;;;;;;2.35;1.02;;;8.80;59.20;;;;;;4956491;28;20079;-78
2021/04/25 02:13:17;;;;;;;2.38;1.20;;;8.80;59.20;;;;;;4956035;28;20035;-76
2021/04/25 02:15:43;;;;;;;2.42;0.90;;;8.70;59.20;;;;;;4956608;28;20030;-78
2021/04/25 02:18:09;;;;;;;4.50;1.23;;;8.70;59.10;;;;;;4955593;28;20035;-78
2021/04/25 02:20:35;;;;;;;3.72;1.52;;;8.60;59.10;;;;;;4956701;28;20031;-77
2021/04/25 02:23:01;;;;;;;1.52;1.00;;;8.60;59.10;;;;;;4954718;28;20074;-77
2021/04/25 02:25:27;;;;;;;3.65;1.20;;;8.60;59.10;;;;;;4955177;28;20020;-77
2021/04/25 02:27:53;;;;;;;1.45;1.08;;;8.60;59.10;;;;;;4970918;28;20055;-78
2021/04/25 02:30:27;;;;;;;2.25;1.00;;;8.60;59.20;;;;;;4954116;29;20031;-77
2021/04/25 02:32:54;;;;;;;2.50;1.10;;;8.60;59.10;;;;;;4956437;28;20019;-77
2021/04/25 02:35:21;;;;;;;1.63;0.90;;;8.60;59.10;;;;;;4955604;28;20103;-76
2021/04/25 02:37:48;;;;;;;2.63;0.95;;;8.60;59.10;;;;;;4956165;28;20019;-77
2021/04/25 02:40:19;;;;;;;2.70;0.90;;;8.60;59.20;;;;;;4970287;28;20038;-78
2021/04/25 02:42:45;;;;;;;2.95;1.50;;;8.60;59.10;;;;;;4955818;28;20115;-76
2021/04/25 02:45:15;;;;;;;4.95;1.33;;;8.60;59.20;;;;;;4955448;28;20031;-78
2021/04/25 02:48:02;;;;;;;4.50;1.60;;;8.50;59.10;;;;;;4956249;28;20122;-76
2021/04/25 02:50:30;;;;;;;2.72;0.90;;;8.50;59.10;;;;;;4956480;28;20468;-77
2021/04/25 02:52:56;;;;;;;2.75;1.08;;;8.50;59.10;;;;;;4955938;28;20023;-76
2021/04/25 02:55:22;;;;;;;2.45;0.80;;;8.50;59.00;;;;;;4954930;28;20770;-78
2021/04/25 02:57:48;;;;;;;1.95;1.00;;;8.50;58.90;;;;;;4955828;28;20037;-77
2021/04/25 03:00:18;;;;;;;3.15;1.27;;;8.50;58.80;;;;;;4955301;28;20125;-77
2021/04/25 03:02:43;;;;;;;1.65;1.10;;;8.50;58.90;;;;;;4955964;28;20094;-77
2021/04/25 03:05:10;;;;;;;2.53;0.80;;;8.50;58.80;;;;;;4953959;29;20083;-78
2021/04/25 03:07:36;;;;;;;2.75;1.10;;;8.50;58.70;;;;;;4970561;28;20019;-78
2021/04/25 03:10:03;;;;;;;2.72;1.00;;;8.50;58.70;;;;;;4970762;28;20046;-78
2021/04/25 03:12:28;;;;;;;3.60;1.25;;;8.50;58.70;;;;;;4954946;28;20024;-77
2021/04/25 03:14:54;;;;;;;4.70;1.00;;;8.50;58.70;;;;;;4955688;28;20130;-78
2021/04/25 03:17:19;;;;;;;3.00;1.27;;;8.50;58.70;;;;;;4955030;28;20385;-77
2021/04/25 03:19:45;;;;;;;3.63;1.10;;;8.50;58.60;;;;;;4970572;28;20023;-76
2021/04/25 03:22:11;;;;;;;2.88;1.10;;;8.60;58.50;;;;;;4969603;28;20453;-77
2021/04/25 03:24:37;;;;;;;3.47;1.58;;;8.60;58.40;;;;;;4955415;28;20494;-77
2021/04/25 03:27:03;;;;;;;1.17;0.70;;;8.70;58.40;;;;;;4955320;28;20030;-78
2021/04/25 03:29:28;;;;;;;1.60;0.88;;;8.70;58.20;;;;;;4969321;28;20371;-76
2021/04/25 03:31:54;;;;;;;2.80;1.02;;;8.70;58.20;;;;;;4955289;28;20317;-78
2021/04/25 03:34:20;;;;;;;2.40;0.93;;;8.70;58.20;;;;;;4968924;28;20058;-78
2021/04/25 03:36:45;;;;;;;2.58;1.05;;;8.80;58.20;;;;;;4955137;28;20385;-77
2021/04/25 03:39:11;;;;;;;3.05;1.17;;;8.80;58.20;;;;;;4953005;29;20027;-78
2021/04/25 03:41:37;;;;;;;3.50;0.80;;;8.80;58.10;;;;;;4955071;28;20027;-77
2021/04/25 03:44:03;;;;;;;4.38;1.10;;;8.80;58.10;;;;;;4955025;28;20038;-77
2021/04/25 03:46:29;;;;;;;3.92;0.80;;;8.80;58.20;;;;;;4968777;28;20019;-76
2021/04/25 03:48:54;;;;;;;0.93;0.73;;;8.80;58.20;;;;;;4969368;28;20125;-77
2021/04/25 03:51:20;;;;;;;2.97;1.02;;;8.80;58.10;;;;;;4952837;28;20383;-77
2021/04/25 03:53:46;;;;;;;1.35;0.82;;;8.90;58.10;;;;;;4954696;28;20019;-77
2021/04/25 03:56:11;;;;;;;2.55;1.13;;;8.90;58.10;;;;;;4969073;28;20023;-78
2021/04/25 03:58:37;;;;;;;2.67;1.17;;;8.90;58.10;;;;;;4954520;28;20058;-78
2021/04/25 04:01:03;;;;;;;1.13;0.80;;;9.00;58.00;;;;;;4953146;29;20047;-78
2021/04/25 04:03:28;;;;;;;4.47;1.05;;;8.90;57.90;;;;;;4953873;28;20027;-77
2021/04/25 04:05:54;;;;;;;2.33;0.90;;;8.90;57.90;;;;;;4954584;28;20019;-76
2021/04/25 04:08:20;;;;;;;2.17;1.00;;;8.90;58.00;;;;;;4952623;29;20091;-76
2021/04/25 04:10:45;;;;;;;2.00;0.80;;;8.90;57.90;;;;;;4954789;28;20411;-78
2021/04/25 04:13:11;;;;;;;2.10;0.82;;;8.90;57.90;;;;;;4954402;28;20023;-76
2021/04/25 04:15:37;;;;;;;1.50;0.85;;;9.00;57.80;;;;;;4969377;28;20301;-77
2021/04/25 04:18:03;;;;;;;2.53;0.95;;;8.90;57.70;;;;;;4954683;28;20389;-77
2021/04/25 04:20:29;;;;;;;1.45;1.00;;;9.00;57.70;;;;;;4952722;29;20953;-77
2021/04/25 04:22:55;;;;;;;1.27;0.80;;;9.00;57.70;;;;;;4954250;28;20538;-79
2021/04/25 04:25:20;;;;;;;1.48;0.95;;;8.90;57.60;;;;;;4953663;28;20471;-78
2021/04/25 04:27:46;;;;;;;1.80;1.02;;;8.90;57.60;;;;;;4969147;28;20027;-78
2021/04/25 04:30:12;;;;;;;2.20;0.90;;;9.00;57.60;;;;;;4953607;28;20038;-77
2021/04/25 04:32:38;;;;;;;2.42;0.82;;;9.00;57.60;;;;;;4954235;28;20034;-78
2021/04/25 04:35:04;;;;;;;2.65;1.17;;;9.00;57.50;;;;;;4954137;28;20023;-78
2021/04/25 04:37:30;;;;;;;3.15;1.20;;;9.00;57.50;;;;;;4952194;29;20023;-77
2021/04/25 04:39:55;;;;;;;4.07;1.20;;;9.10;57.60;;;;;;4954051;28;20035;-77
2021/04/25 04:42:21;;;;;;;2.15;0.70;;;9.10;57.60;;;;;;4953120;28;20082;-78
2021/04/25 04:44:47;;;;;;;1.70;0.80;;;9.00;57.50;;;;;;4968181;28;20464;-78
2021/04/25 04:47:13;;;;;;;1.33;0.82;;;9.10;57.50;;;;;;4952214;29;20024;-77
2021/04/25 04:49:39;;;;;;;4.15;1.08;;;9.10;57.30;;;;;;4954599;28;20046;-78
2021/04/25 04:52:05;;;;;;;2.95;1.02;;;9.00;57.20;;;;;;4968931;28;20031;-78
2021/04/25 04:54:31;;;;;;;3.05;0.80;;;9.00;57.20;;;;;;4968133;28;20464;-78
2021/04/25 04:56:56;;;;;;;1.30;0.60;;;9.00;57.00;;;;;;4953966;28;20457;-78
2021/04/25 04:59:22;;;;;;;1.30;0.90;;;9.00;57.00;;;;;;4953248;28;20052;-77
2021/04/25 05:01:47;;;;;;;2.33;0.88;;;9.00;57.00;;;;;;4953760;28;20086;-77
2021/04/25 05:04:13;;;;;;;1.90;0.80;;;9.10;56.90;;;;;;4952989;28;20044;-78
2021/04/25 05:06:39;;;;;;;2.15;0.98;;;9.00;56.80;;;;;;4953897;28;20460;-78
2021/04/25 05:09:05;;;;;;;2.38;0.90;;;9.00;56.70;;;;;;4952350;29;20031;-78
2021/04/25 05:11:30;;;;;;;0.90;0.70;;;9.00;56.70;;;;;;4967725;28;20046;-78
2021/04/25 05:13:56;;;;;;;2.63;0.80;;;9.10;56.70;;;;;;4953741;28;20098;-78
2021/04/25 05:16:22;;;;;;;3.85;1.02;;;9.10;56.60;;;;;;4952862;28;20110;-77
2021/04/25 05:18:47;;;;;;;1.17;0.70;;;9.10;56.40;;;;;;4953410;28;20039;-78
2021/04/25 05:21:13;;;;;;;1.90;1.00;;;9.10;56.50;;;;;;4968393;28;20034;-78
2021/04/25 05:23:39;;;;;;;1.58;1.08;;;9.10;56.50;;;;;;4953339;28;20032;-78
2021/04/25 05:26:05;;;;;;;1.85;0.98;;;9.10;56.50;;;;;;4952523;29;20023;-78
2021/04/25 05:28:31;;;;;;;3.20;1.05;;;9.20;56.40;;;;;;4953255;28;20019;-78
2021/04/25 05:30:58;;;;;;;2.25;0.80;;;9.20;56.30;;;;;;4968461;28;20039;-78
2021/04/25 05:33:24;;;;;;;6.30;0.80;;;9.20;56.10;;;;;;4953103;28;20027;-77
2021/04/25 05:35:50;;;;;;;2.03;1.23;;;9.20;56.00;;;;;;4953271;28;20030;-77
2021/04/25 05:38:16;;;;;;;2.00;0.88;;;9.20;56.10;;;;;;4953048;28;20102;-78
2021/04/25 05:40:41;;;;;;;1.88;0.95;;;9.20;56.10;;;;;;4968814;28;20065;-78
2021/04/25 05:43:07;;;;;;;2.40;1.25;;;9.20;56.00;;;;;;4953417;28;20027;-77
2021/04/25 05:45:34;;;;;;;2.08;0.80;;;9.20;55.90;;;;;;4953007;28;20027;-77
2021/04/25 05:47:59;;;;;;;2.17;0.95;;;9.20;55.90;;;;;;4968076;28;20380;-78
2021/04/25 05:50:28;;;;;;;4.07;1.27;;;9.30;55.90;;;;;;4952874;28;20043;-78
2021/04/25 05:52:54;;;;;;;3.60;0.90;;;9.30;55.90;;;;;;4953086;28;20135;-77
2021/04/25 05:55:20;;;;;;;1.35;1.10;;;9.30;56.00;;;;;;4952734;28;20027;-78
2021/04/25 05:57:46;;;;;;;3.00;1.10;;;9.30;55.90;;;;;;4971266;28;20027;-78
2021/04/25 06:00:16;;;;;;;2.15;0.90;;;9.30;55.80;;;;;;4971331;28;20101;-77
2021/04/25 06:02:41;;;;;;;2.17;0.85;;;9.40;55.60;;;;;;4954964;29;20182;-78
2021/04/25 06:05:08;;;;;;;1.08;0.88;;;9.40;55.60;;;;;;4955545;28;20118;-76
2021/04/25 06:07:33;;;;;;;1.50;0.90;;;9.40;55.60;;;;;;4970910;28;20152;-78
2021/04/25 06:09:59;;;;;;;3.83;1.08;;;9.40;55.60;;;;;;4955402;28;20117;-78
2021/04/25 06:12:25;;;;;;;1.45;0.98;;;9.40;55.60;;;;;;4956304;28;20376;-78
2021/04/25 06:14:50;;;;;;;3.25;1.15;;;9.40;55.60;;;;;;4956391;28;20503;-77
2021/04/25 06:17:16;;;;;;;2.92;1.10;;;9.40;55.60;;;;;;4956638;28;20050;-78
2021/04/25 06:19:42;;;;;;;3.40;1.27;;;9.30;55.30;;;;;;4955949;28;20072;-77
2021/04/25 06:22:09;;;;;;;3.13;0.98;;;9.30;55.50;;;;;;4956727;28;20467;-77
2021/04/25 06:24:36;;;;;;;2.83;1.10;;;9.30;55.40;;;;;;4954660;28;20028;-77
2021/04/25 06:27:02;;;;;;;1.23;0.65;;;9.30;55.30;;;;;;4956417;28;20046;-77
2021/04/25 06:29:29;;;;;;;1.02;0.60;;;9.30;55.30;;;;;;4970482;28;20391;-78
2021/04/25 06:31:55;;;;;;;1.95;0.63;;;9.40;55.30;;;;;;4956357;28;20046;-77
2021/04/25 06:34:21;;;;;;;2.05;1.05;;;9.50;55.30;;;;;;4956063;28;20041;-76
2021/04/25 06:36:47;;;;;;;4.38;0.88;;;9.50;55.20;;;;;;4956182;28;20361;-76
2021/04/25 06:39:12;;;;;;;2.90;0.80;;;9.60;55.20;;;;;;4956169;28;20038;-78
2021/04/25 06:41:38;;;;;;;1.33;0.77;;;9.60;55.10;;;;;;4969978;28;20043;-77
2021/04/25 06:44:04;;;;;;;2.40;0.73;;;9.60;55.10;;;;;;4956116;28;20026;-78
2021/04/25 06:46:30;;;;;;;1.08;0.60;;;9.70;55.10;;;;;;4955463;28;20023;-76
2021/04/25 06:48:56;;;;;;;1.33;0.50;;;9.80;55.20;;;;;;4956148;28;20106;-76
2021/04/25 06:51:22;;;;;;;3.53;0.77;;;9.70;54.90;;;;;;4970148;28;20039;-78
2021/04/25 06:53:48;;;;;;;2.17;0.85;;;9.70;54.70;;;;;;4970434;28;20476;-78
2021/04/25 06:56:14;;;;;;;1.00;0.80;;;9.70;54.70;;;;;;4955743;28;20114;-76
2021/04/25 06:58:40;;;;;;;5.70;0.98;;;9.50;54.40;;;;;;4955071;28;20363;-77
2021/04/25 07:01:05;;;;;;;1.45;0.80;;;9.50;54.50;;;;;;4955067;28;20091;-78
2021/04/25 07:03:32;;;;;;;1.40;0.60;;;9.50;54.60;;;;;;4954516;28;20023;-78
2021/04/25 07:05:58;;;;;;;0.98;0.70;;;9.60;54.60;;;;;;4954189;28;20420;-78
2021/04/25 07:08:25;;;;;;;1.70;0.93;;;9.70;54.50;;;;;;4954461;28;20030;-77
2021/04/25 07:10:52;;;;;;;1.65;0.85;;;9.70;54.30;;;;;;4954173;28;20032;-76
2021/04/25 07:13:18;;;;;;;1.52;0.90;;;9.70;54.40;;;;;;4955618;28;20439;-77
2021/04/25 07:15:45;;;;;;;1.98;1.00;;;9.70;54.30;;;;;;4954888;28;20034;-77
2021/04/25 07:18:11;;;;;;;1.00;0.70;;;9.80;54.20;;;;;;4953976;29;20027;-78
2021/04/25 07:20:37;;;;;;;1.52;0.60;;;9.90;54.20;;;;;;4954845;28;20046;-76
2021/04/25 07:23:03;;;;;;;1.52;0.73;;;10.00;54.10;;;;;;4955277;28;20460;-76
2021/04/25 07:25:30;;;;;;;1.35;0.70;;;10.00;54.00;;;;;;4953392;29;20059;-77
2021/04/25 07:27:55;;;;;;;3.65;0.90;;;10.10;53.80;;;;;;4955545;28;20051;-78
2021/04/25 07:30:22;;;;;;;6.47;0.63;;;10.10;53.80;;;;;;4955593;28;20073;-78
2021/04/25 07:32:47;;;;;;;1.98;0.65;;;10.20;53.80;;;;;;4953601;28;20078;-77
2021/04/25 07:35:13;;;;;;;1.58;0.80;;;10.20;53.60;;;;;;4955221;28;20027;-77
2021/04/25 07:37:39;;;;;;;3.30;1.00;;;10.30;53.70;;;;;;4954711;28;20082;-76
2021/04/25 07:40:06;;;;;;;2.35;0.80;;;10.30;53.60;;;;;;4955302;28;20031;-79
2021/04/25 07:42:33;;;;;;;1.85;0.82;;;10.40;53.60;;;;;;4953228;28;20019;-78
2021/04/25 07:44:58;;;;;;;1.67;0.57;;;10.40;54.10;;;;;;4954744;28;20058;-77
2021/04/25 07:47:24;;;;;;;1.80;0.70;;;10.50;53.60;;;;;;4955333;29;20023;-77
2021/04/25 07:49:50;;;;;;;0.50;0.50;;;10.50;53.50;;;;;;4953582;29;20366;-77
2021/04/25 07:52:15;;;;;;;2.00;0.63;;;10.50;53.50;;;;;;4955009;28;20105;-77
2021/04/25 07:54:41;;;;;;;3.55;0.80;;;10.60;53.40;;;;;;4952951;29;20594;-78
2021/04/25 07:57:07;;;;;;;0.68;0.50;;;10.50;53.10;;;;;;4954673;29;20047;-78
2021/04/25 07:59:33;;;;;;;1.85;0.70;;;10.50;53.20;;;;;;4953950;28;20365;-77
2021/04/25 08:01:59;;;;;;;0.47;0.45;;;10.50;53.20;;;;;;4954831;28;20038;-77
2021/04/25 08:04:25;;;;;;;1.00;0.68;;;10.60;53.40;;;;;;4953467;29;20071;-77
2021/04/25 08:06:51;;;;;;;1.65;0.82;;;10.50;53.10;;;;;;4954476;28;20057;-77
2021/04/25 08:09:17;;;;;;;3.67;1.15;;;10.50;53.30;;;;;;4954555;28;20031;-78
2021/04/25 08:11:42;;;;;;;1.17;0.57;;;10.50;53.90;;;;;;4954164;28;20050;-77
2021/04/25 08:14:08;;;;;;;1.08;0.63;;;10.50;53.20;;;;;;4953261;28;20054;-77
2021/04/25 08:16:34;;;;;;;1.30;0.60;;;10.50;53.20;;;;;;4952178;28;20031;-76
2021/04/25 08:19:00;;;;;;;3.22;0.80;;;10.60;53.20;;;;;;4954123;28;20024;-77
2021/04/25 08:21:30;;;;;;;2.50;0.80;;;10.60;52.90;;;;;;4952518;28;20027;-77
2021/04/25 08:23:56;;;;;;;2.55;1.20;;;10.60;52.90;;;;;;4954688;28;20019;-78
2021/04/25 08:26:22;;;;;;;1.85;0.50;;;10.60;52.90;;;;;;4954003;28;20030;-77
2021/04/25 08:28:47;;;;;;;1.55;0.70;;;10.50;52.60;;;;;;4952398;28;20048;-78
2021/04/25 08:31:13;;;;;;;1.20;0.60;;;10.50;52.60;;;;;;4953039;29;20062;-78
2021/04/25 08:33:39;;;;;;;1.65;0.60;;;10.60;52.70;;;;;;4952305;29;20034;-77
2021/04/25 08:36:06;;;;;;;1.88;1.58;;;10.60;52.40;;;;;;4954192;28;20055;-78
2021/04/25 08:38:32;;;;;;;0.90;0.50;;;10.60;52.30;;;;;;4953563;28;20126;-78
2021/04/25 08:41:01;;;;;;;2.63;0.70;;;10.70;52.40;;;;;;4954188;28;20042;-77
2021/04/25 08:43:27;;;;;;;1.85;0.63;;;10.80;52.20;;;;;;4952781;29;20118;-77
2021/04/25 08:45:53;;;;;;;0.55;0.55;;;10.90;52.30;;;;;;4952008;29;20027;-76
2021/04/25 08:48:25;;;;;;;1.83;0.63;;;11.00;52.20;;;;;;4952891;29;20115;-78
2021/04/25 08:50:51;;;;;;;6.15;0.82;;;11.10;52.10;;;;;;4953692;28;20020;-78
2021/04/25 08:53:19;;;;;;;0.70;0.60;;;11.20;52.00;;;;;;4954249;28;20058;-77
2021/04/25 08:55:45;;;;;;;2.72;0.65;;;11.30;51.90;;;;;;4953363;28;20491;-77
2021/04/25 08:58:11;;;;;;;3.28;0.73;;;11.40;51.90;;;;;;4953940;28;20027;-77
2021/04/25 09:00:36;;;;;;;1.30;0.70;;;11.40;51.70;;;;;;4951671;28;20078;-76
2021/04/25 09:03:02;;;;;;;1.42;0.70;;;11.50;51.70;;;;;;4953454;28;20031;-77
2021/04/25 09:05:28;;;;;;;0.43;0.43;;;11.60;51.50;;;;;;4953474;28;20345;-77
2021/04/25 09:07:59;;;;;;;1.75;0.80;;;11.70;51.40;;;;;;4951486;28;20038;-77
2021/04/25 09:10:38;;;;;;;1.48;0.80;;;11.70;51.20;;;;;;4952638;28;20420;-77
2021/04/25 09:13:16;;;;;;;5.22;0.90;;;11.70;50.90;;;;;;4945983;28;20031;-77
2021/04/25 09:15:41;;;;;;;1.45;0.70;;;11.60;50.50;;;;;;4953106;28;20028;-77
2021/04/25 09:18:07;;;;;;;4.97;1.20;;;11.50;50.80;;;;;;4952008;29;20361;-78
2021/04/25 09:20:38;;;;;;;2.47;0.85;;;11.60;50.90;;;;;;4948736;28;20030;-77
2021/04/25 09:23:06;;;;;;;3.00;0.85;;;11.60;50.50;;;;;;4934536;29;20028;-77
2021/04/25 09:25:32;;;;;;;2.35;0.90;;;11.60;50.70;;;;;;4934446;29;20027;-77
2021/04/25 09:28:14;;;;;;;1.33;0.70;;;11.70;50.80;;;;;;4949524;29;20027;-77
2021/04/25 09:30:53;;;;;;;0.95;0.65;;;11.80;50.70;;;;;;4934071;29;20027;-78
2021/04/25 09:33:19;;;;;;;4.10;0.98;;;11.80;50.60;;;;;;4953411;29;20032;-77
2021/04/25 09:35:45;;;;;;;1.65;0.80;;;12.00;50.60;;;;;;4952503;28;20399;-78
2021/04/25 09:38:13;;;;;;;0.90;0.52;;;12.10;50.40;;;;;;4938115;29;20410;-77
2021/04/25 09:40:46;;;;;;;1.15;0.60;;;12.20;50.20;;;;;;4937645;29;20046;-78
2021/04/25 09:43:14;;;;;;;3.10;0.75;;;12.30;49.90;;;;;;4969088;28;20028;-78
2021/04/25 09:45:45;;;;;;;3.85;0.93;;;12.40;49.50;;;;;;4937595;29;20086;-78
2021/04/25 09:48:23;;;;;;;1.70;0.90;;;12.30;49.30;;;;;;4938296;29;20164;-77
2021/04/25 09:51:13;;;;;;;1.70;1.00;;;12.30;49.70;;;;;;4937425;29;20098;-78
2021/04/25 09:54:00;;;;;;;2.05;0.65;;;12.30;49.50;;;;;;4952172;29;20384;-78
2021/04/25 09:56:38;;;;;;;0.90;0.57;;;12.40;49.40;;;;;;4936180;29;20451;-77
2021/04/25 09:59:05;;;;;;;3.22;0.80;;;12.40;49.20;;;;;;4937782;29;20051;-77
2021/04/25 10:01:36;;;;;;;0.40;0.40;;;12.40;49.40;;;;;;4937797;29;20027;-78
2021/04/25 10:04:04;;;;;;;1.65;0.70;;;12.60;49.40;;;;;;4952555;29;20495;-77
2021/04/25 10:06:49;;;;;;;3.00;0.75;;;12.60;49.10;;;;;;4937695;29;20135;-77
2021/04/25 10:09:16;;;;;;;4.03;1.08;;;12.70;49.20;;;;;;4937763;29;20119;-77
2021/04/25 10:11:42;;;;;;;1.25;0.70;;;12.80;49.10;;;;;;4936728;29;20037;-77
2021/04/25 10:14:08;;;;;;;1.77;0.77;;;12.90;49.00;;;;;;4937173;29;20031;-78
2021/04/25 10:16:33;;;;;;;2.40;0.85;;;13.00;49.00;;;;;;4937191;29;20028;-78
2021/04/25 10:19:01;;;;;;;1.45;0.75;;;13.00;48.70;;;;;;4936809;29;20368;-78
2021/04/25 10:21:27;;;;;;;1.10;0.82;;;13.00;48.70;;;;;;4937073;29;20429;-78
2021/04/25 10:23:53;;;;;;;0.95;0.57;;;13.10;48.70;;;;;;4951290;29;20028;-78
2021/04/25 10:26:22;;;;;;;2.25;0.60;;;13.10;48.70;;;;;;4937125;29;20103;-78
2021/04/25 10:28:57;;;;;;;2.45;0.60;;;13.10;48.50;;;;;;4936753;29;20031;-78
2021/04/25 10:31:33;;;;;;;0.82;0.55;;;13.00;48.20;;;;;;4951972;28;20035;-78
2021/04/25 10:34:07;;;;;;;3.55;0.65;;;13.00;48.20;;;;;;4936731;29;20055;-77
2021/04/25 10:36:45;;;;;;;3.63;0.90;;;12.90;48.30;;;;;;4936895;29;20031;-78
2021/04/25 10:39:38;;;;;;;1.17;0.70;;;13.00;48.40;;;;;;4937253;29;20046;-78
2021/04/25 10:42:24;;;;;;;3.47;0.75;;;13.10;48.40;;;;;;4951929;28;20376;-76
2021/04/25 10:44:56;;;;;;;1.65;0.70;;;13.20;48.20;;;;;;4950855;29;20032;-78
2021/04/25 10:47:22;;;;;;;2.55;0.80;;;13.30;48.00;;;;;;4951902;29;20449;-77
2021/04/25 10:49:48;;;;;;;5.25;1.50;;;13.30;47.90;;;;;;4935906;29;20392;-78
2021/04/25 10:52:27;;;;;;;1.38;0.80;;;13.30;47.90;;;;;;4936913;29;20028;-78
2021/04/25 10:55:20;;;;;;;1.38;0.85;;;13.40;47.80;;;;;;4936447;29;20119;-78
2021/04/25 10:58:02;;;;;;;0.85;0.60;;;13.40;47.60;;;;;;4936374;29;20019;-78
2021/04/25 11:00:34;;;;;;;0.90;0.60;;;13.40;47.50;;;;;;4936845;29;20103;-77
2021/04/25 11:03:06;;;;;;;1.73;0.70;;;13.40;47.40;;;;;;4950770;28;20118;-78
2021/04/25 11:05:37;;;;;;;1.33;0.50;;;13.50;47.30;;;;;;4936302;29;20028;-77
2021/04/25 11:08:04;;;;;;;1.02;0.50;;;13.60;47.20;;;;;;4936015;29;20030;-77
2021/04/25 11:10:47;;;;;;;2.38;0.55;;;13.80;47.00;;;;;;4936521;29;20030;-77
2021/04/25 11:13:31;;;;;;;1.95;0.75;;;14.10;46.70;;;;;;4951211;29;20039;-77
2021/04/25 11:15:58;;;;;;;0.75;0.60;;;14.30;46.40;;;;;;4936060;29;20035;-77
2021/04/25 11:18:43;;;;;;;1.77;0.60;;;14.50;45.90;;;;;;4936419;29;20020;-77
2021/04/25 11:21:28;;;;;;;1.80;0.70;;;14.50;45.60;;;;;;4950569;28;20038;-78
2021/04/25 11:23:54;;;;;;;2.70;0.40;;;14.60;45.80;;;;;;4935726;29;20055;-79
2021/04/25 11:26:55;;;;;;;1.95;0.93;;;14.70;45.90;;;;;;4936183;29;20111;-77
2021/04/25 11:29:21;;;;;;;3.13;0.80;;;14.70;45.70;;;;;;4934617;29;20043;-77
2021/04/25 11:31:47;;;;;;;0.95;0.70;;;14.70;45.90;;;;;;4935121;29;20295;-76
2021/04/25 11:34:25;;;;;;;1.95;0.70;;;14.60;45.70;;;;;;4950676;28;20499;-79
2021/04/25 11:37:03;;;;;;;0.57;0.50;;;14.60;45.60;;;;;;4935417;29;20038;-78
2021/04/25 11:39:36;;;;;;;0.95;0.60;;;14.40;46.00;;;;;;4950947;29;20031;-77
2021/04/25 11:42:02;;;;;;;4.20;0.70;;;14.60;45.90;;;;;;4935405;29;20542;-78
2021/04/25 11:44:29;;;;;;;3.35;0.70;;;14.70;45.60;;;;;;4950603;29;20452;-77
2021/04/25 11:46:56;;;;;;;0.88;0.60;;;14.50;44.90;;;;;;4950133;29;20031;-77
2021/04/25 11:49:54;;;;;;;0.93;0.50;;;14.30;45.30;;;;;;4949995;28;20031;-77
2021/04/25 11:52:22;;;;;;;1.75;1.00;;;14.20;45.20;;;;;;4950096;29;20067;-77
2021/04/25 11:54:55;;;;;;;3.00;0.70;;;14.10;45.40;;;;;;4965739;28;20472;-78
2021/04/25 11:57:23;;;;;;;0.82;0.60;;;14.20;45.30;;;;;;4950654;29;20035;-78
2021/04/25 12:00:10;;;;;;;0.52;0.50;;;14.20;44.90;;;;;;4934735;29;20044;-77
2021/04/25 12:02:36;;;;;;;2.33;0.70;;;14.20;45.10;;;;;;4950131;28;20075;-78
2021/04/25 12:05:12;;;;;;;5.45;0.68;;;14.20;45.60;;;;;;4934913;29;20028;-76
2021/04/25 12:07:45;;;;;;;2.20;0.60;;;14.40;45.50;;;;;;4935583;29;20020;-78
2021/04/25 12:10:32;;;;;;;1.10;0.57;;;14.60;45.00;;;;;;4949867;29;20031;-77
2021/04/25 12:13:10;;;;;;;1.23;0.65;;;14.80;44.70;;;;;;4934748;29;20484;-77
2021/04/25 12:15:50;;;;;;;1.10;0.55;;;15.00;44.10;;;;;;4942401;29;20027;-76
2021/04/25 12:18:27;;;;;;;2.42;0.70;;;15.20;44.00;;;;;;4952856;28;20103;-74
2021/04/25 12:20:58;;;;;;;1.45;0.68;;;15.20;43.60;;;;;;4953161;29;20384;-77
2021/04/25 12:23:27;;;;;;;1.95;0.70;;;15.30;43.90;;;;;;4953195;29;20090;-78
2021/04/25 12:25:55;;;;;;;1.98;0.80;;;15.50;43.60;;;;;;4968435;28;20519;-77
2021/04/25 12:28:35;;;;;;;1.10;0.50;;;15.70;43.40;;;;;;4954215;28;20071;-78
2021/04/25 12:31:01;;;;;;;1.38;0.43;;;16.10;43.20;;;;;;4968472;28;20035;-77
2021/04/25 12:33:40;;;;;;;1.45;1.20;;;16.20;42.70;;;;;;4953117;28;20424;-78
2021/04/25 12:36:07;;;;;;;1.30;0.75;;;16.10;42.60;;;;;;4953829;29;20114;-78
2021/04/25 12:38:35;;;;;;;1.40;0.70;;;16.00;43.30;;;;;;4954240;29;20027;-77
2021/04/25 12:41:03;;;;;;;0.90;0.70;;;16.00;42.90;;;;;;4952149;29;20027;-77
2021/04/25 12:43:31;;;;;;;1.08;0.50;;;16.00;42.40;;;;;;4952736;28;20030;-79
2021/04/25 12:45:58;;;;;;;1.92;0.70;;;16.00;42.20;;;;;;4953354;29;20027;-79
2021/04/25 12:48:44;;;;;;;1.10;0.70;;;15.90;42.40;;;;;;4952574;29;20395;-78
2021/04/25 12:51:16;;;;;;;0.55;0.50;;;15.80;42.40;;;;;;4953186;29;20169;-79
2021/04/25 12:54:03;;;;;;;2.03;0.80;;;15.80;42.80;;;;;;4952691;29;20027;-77
2021/04/25 12:56:33;;;;;;;0.60;0.60;;;15.90;42.80;;;;;;4954334;28;20027;-77
2021/04/25 12:59:09;;;;;;;1.45;0.60;;;15.90;42.70;;;;;;4953325;28;20057;-77